createdAt,value
2018-08-09T00:00:21.391Z,76.32
2018-08-09T00:01:21.368Z,76.90
2018-08-09T00:02:21.349Z,76.80
2018-08-09T00:03:21.325Z,76.42
2018-08-09T00:04:21.298Z,76.51
2018-08-09T00:05:21.268Z,76.80
2018-08-09T00:06:21.248Z,77.00
2018-08-09T00:07:21.221Z,76.80
2018-08-09T00:08:21.301Z,76.61
2018-08-09T00:09:21.175Z,76.71
2018-08-09T00:10:21.254Z,77.19
2018-08-09T00:11:21.126Z,76.80
2018-08-09T00:12:21.095Z,76.80
2018-08-09T00:13:21.130Z,77.00
2018-08-09T00:14:21.061Z,76.42
2018-08-09T00:15:21.040Z,76.80
2018-08-09T00:16:21.004Z,76.03
2018-08-09T00:17:21.000Z,76.71
2018-08-09T00:18:21.010Z,76.13
2018-08-09T00:19:20.932Z,76.61
2018-08-09T00:20:20.973Z,76.42
2018-08-09T00:21:20.879Z,75.74
2018-08-09T00:22:20.876Z,75.03
2018-08-09T00:23:20.892Z,75.71
2018-08-09T00:24:20.800Z,75.42
2018-08-09T00:25:20.809Z,74.84
2018-08-09T00:26:20.749Z,74.26
2018-08-09T00:27:20.726Z,75.03
2018-08-09T00:28:20.725Z,74.55
2018-08-09T00:29:20.696Z,75.03
2018-08-09T00:30:20.653Z,74.36
2018-08-09T00:31:20.641Z,74.16
2018-08-09T00:32:22.392Z,74.07
2018-08-09T00:33:23.368Z,74.07
2018-08-09T00:34:20.593Z,73.39
2018-08-09T00:35:20.534Z,73.10
2018-08-09T00:36:22.381Z,72.91
2018-08-09T00:37:20.485Z,72.11
2018-08-09T00:38:20.530Z,72.68
2018-08-09T00:39:20.439Z,72.78
2018-08-09T00:40:20.517Z,72.68
2018-08-09T00:41:20.382Z,72.24
2018-08-09T00:42:20.353Z,72.14
2018-08-09T00:43:20.330Z,71.53
2018-08-09T00:44:20.305Z,71.53
2018-08-09T00:45:20.318Z,70.47
2018-08-09T00:46:20.249Z,70.28
2018-08-09T00:47:20.238Z,70.09
2018-08-09T00:48:20.207Z,70.56
2018-08-09T00:49:20.294Z,69.79
2018-08-09T00:50:20.163Z,69.70
2018-08-09T00:51:20.200Z,70.09
2018-08-09T00:52:20.099Z,69.51
2018-08-09T00:53:20.084Z,67.77
2018-08-09T00:54:20.056Z,69.12
2018-08-09T00:55:20.025Z,69.12
2018-08-09T00:56:19.998Z,69.31
2018-08-09T00:57:20.041Z,68.35
2018-08-09T00:58:19.955Z,69.12
2018-08-09T00:59:19.981Z,69.60
2018-08-09T01:00:19.903Z,67.68
2018-08-09T01:01:19.971Z,67.87
2018-08-09T01:02:19.843Z,68.90
2018-08-09T01:03:19.856Z,67.68
2018-08-09T01:04:19.799Z,68.22
2018-08-09T01:05:19.784Z,68.35
2018-08-09T01:06:19.836Z,67.65
2018-08-09T01:07:19.726Z,68.26
2018-08-09T01:08:19.702Z,67.26
2018-08-09T01:09:19.739Z,66.30
2018-08-09T01:10:19.654Z,66.49
2018-08-09T01:11:19.670Z,66.39
2018-08-09T01:12:19.598Z,65.63
2018-08-09T01:13:19.571Z,65.43
2018-08-09T01:14:19.544Z,65.33
2018-08-09T01:15:19.535Z,63.99
2018-08-09T01:16:19.497Z,64.66
2018-08-09T01:17:19.468Z,64.08
2018-08-09T01:18:19.450Z,64.18
2018-08-09T01:19:19.417Z,63.51
2018-08-09T01:20:19.393Z,63.02
2018-08-09T01:21:19.367Z,64.18
2018-08-09T01:22:21.892Z,63.02
2018-08-09T01:23:19.326Z,64.28
2018-08-09T01:24:19.414Z,63.51
2018-08-09T01:25:19.267Z,62.26
2018-08-09T01:26:19.256Z,62.45
2018-08-09T01:27:19.299Z,62.93
2018-08-09T01:28:19.209Z,63.99
2018-08-09T01:29:19.205Z,63.79
2018-08-09T01:30:19.141Z,63.12
2018-08-09T01:31:19.137Z,62.64
2018-08-09T01:32:19.104Z,62.83
2018-08-09T01:33:19.109Z,62.54
2018-08-09T01:34:19.103Z,63.22
2018-08-09T01:35:19.037Z,63.99
2018-08-09T01:36:19.076Z,63.02
2018-08-09T01:37:18.965Z,63.70
2018-08-09T01:38:20.898Z,64.08
2018-08-09T01:39:18.915Z,64.79
2018-08-09T01:40:18.909Z,64.69
2018-08-09T01:41:18.863Z,63.82
2018-08-09T01:42:18.878Z,63.54
2018-08-09T01:43:18.807Z,63.92
2018-08-09T01:44:18.864Z,63.44
2018-08-09T01:45:18.829Z,63.70
2018-08-09T01:46:18.739Z,64.28
2018-08-09T01:47:18.861Z,64.28
2018-08-09T01:48:18.688Z,63.89
2018-08-09T01:49:18.655Z,64.37
2018-08-09T01:50:18.667Z,63.79
2018-08-09T01:51:18.612Z,63.60
2018-08-09T01:52:21.406Z,64.76
2018-08-09T01:53:18.558Z,64.98
2018-08-09T01:54:51.802Z,63.92
2018-08-09T01:56:21.410Z,64.56
2018-08-09T01:57:21.470Z,63.99
2018-08-09T01:59:21.737Z,64.37
2018-08-09T02:00:21.779Z,63.41
2018-08-09T02:02:27.524Z,62.83
2018-08-09T02:03:27.553Z,61.97
2018-08-09T02:05:23.454Z,62.16
2018-08-09T02:06:23.342Z,62.26
2018-08-09T02:08:23.825Z,62.74
2018-08-09T02:09:23.727Z,62.83
2018-08-09T02:11:26.656Z,61.29
2018-08-09T02:12:26.580Z,60.72
2018-08-09T02:14:29.467Z,61.49
2018-08-09T02:15:29.516Z,61.77
2018-08-09T02:17:29.890Z,61.10
2018-08-09T02:18:29.739Z,61.19
2018-08-09T02:20:24.208Z,60.33
2018-08-09T02:21:24.136Z,60.59
2018-08-09T02:23:27.503Z,58.79
2018-08-09T02:24:27.514Z,58.60
2018-08-09T02:26:34.347Z,58.02
2018-08-09T02:27:34.256Z,57.45
2018-08-09T02:29:37.169Z,59.37
2018-08-09T02:30:37.087Z,60.14
2018-08-09T02:32:31.428Z,59.08
2018-08-09T02:33:31.391Z,58.67
2018-08-09T02:35:27.318Z,59.15
2018-08-09T02:36:27.327Z,59.05
2018-08-09T02:38:33.144Z,58.95
2018-08-09T02:39:33.157Z,58.47
2018-08-09T02:41:48.985Z,57.60
2018-08-09T02:42:48.976Z,58.86
2018-08-09T02:44:49.406Z,58.28
2018-08-09T02:45:49.403Z,59.24
2018-08-09T02:47:45.466Z,58.12
2018-08-09T02:48:45.308Z,58.28
2018-08-09T02:50:48.176Z,58.09
2018-08-09T02:51:48.162Z,57.90
2018-08-09T02:53:56.554Z,57.60
2018-08-09T02:54:56.486Z,57.03
2018-08-09T02:57:00.769Z,57.90
2018-08-09T02:58:00.773Z,57.90
2018-08-09T02:59:58.690Z,57.42
2018-08-09T03:00:58.539Z,57.99
2018-08-09T03:02:58.894Z,57.13
2018-08-09T03:03:58.867Z,59.15
2018-08-09T03:06:02.363Z,58.86
2018-08-09T03:07:02.221Z,59.05
2018-08-09T03:09:00.084Z,59.82
2018-08-09T03:10:00.039Z,58.60
2018-08-09T03:11:58.920Z,60.04
2018-08-09T03:12:58.824Z,59.34
2018-08-09T03:15:02.235Z,60.72
2018-08-09T03:16:02.169Z,61.46
2018-08-09T03:17:55.534Z,61.10
2018-08-09T03:18:55.509Z,62.26
2018-08-09T03:20:53.420Z,60.91
2018-08-09T03:21:53.384Z,62.16
2018-08-09T03:23:50.232Z,62.16
2018-08-09T03:24:50.187Z,62.54
2018-08-09T03:26:46.057Z,62.64
2018-08-09T03:27:46.003Z,63.31
2018-08-09T03:29:41.904Z,63.31
2018-08-09T03:30:41.838Z,63.22
2018-08-09T03:32:47.690Z,64.31
2018-08-09T03:33:47.644Z,63.54
2018-08-09T03:35:42.011Z,64.21
2018-08-09T03:36:41.968Z,64.12
2018-08-09T03:38:46.301Z,64.12
2018-08-09T03:39:46.269Z,62.67
2018-08-09T03:41:42.149Z,64.59
2018-08-09T03:42:42.119Z,63.92
2018-08-09T03:44:37.965Z,63.79
2018-08-09T03:45:37.919Z,62.83
2018-08-09T03:47:33.787Z,63.60
2018-08-09T03:48:33.727Z,62.57
2018-08-09T03:50:38.141Z,62.83
2018-08-09T03:51:38.067Z,63.25
2018-08-09T03:53:42.581Z,62.64
2018-08-09T03:54:42.551Z,62.87
2018-08-09T03:56:46.907Z,63.06
2018-08-09T03:57:46.857Z,63.34
2018-08-09T03:59:41.277Z,64.21
2018-08-09T04:00:41.159Z,63.73
2018-08-09T04:02:36.107Z,63.54
2018-08-09T04:03:35.484Z,64.12
2018-08-09T04:05:28.848Z,64.89
2018-08-09T04:06:28.798Z,64.69
2018-08-09T04:08:26.642Z,65.85
2018-08-09T04:09:26.630Z,65.37
2018-08-09T04:11:21.009Z,65.75
2018-08-09T04:12:20.955Z,65.56
2018-08-09T04:14:24.818Z,66.71
2018-08-09T04:15:24.742Z,66.71
2018-08-09T04:17:19.123Z,65.30
2018-08-09T04:18:19.049Z,66.55
2018-08-09T04:20:25.912Z,66.75
2018-08-09T04:21:25.854Z,66.94
2018-08-09T04:23:33.710Z,66.65
2018-08-09T04:24:33.691Z,67.13
2018-08-09T04:26:36.693Z,67.13
2018-08-09T04:27:36.545Z,68.10
2018-08-09T04:29:39.945Z,67.90
2018-08-09T04:30:39.946Z,67.61
2018-08-09T04:32:43.788Z,66.65
2018-08-09T04:33:43.763Z,67.81
2018-08-09T04:35:38.161Z,67.61
2018-08-09T04:36:38.072Z,67.52
2018-08-09T04:38:53.929Z,67.90
2018-08-09T04:39:53.888Z,67.90
2018-08-09T04:42:15.794Z,67.33
2018-08-09T04:43:15.711Z,67.52
2018-08-09T04:45:32.160Z,67.33
2018-08-09T04:46:32.141Z,68.19
2018-08-09T04:48:29.910Z,67.71
2018-08-09T04:49:29.883Z,68.10
2018-08-09T04:51:30.244Z,68.90
2018-08-09T04:52:30.191Z,68.13
2018-08-09T04:54:34.063Z,68.32
2018-08-09T04:55:34.038Z,68.13
2018-08-09T04:57:38.402Z,68.23
2018-08-09T04:58:38.346Z,68.13
2018-08-09T05:00:34.174Z,67.94
2018-08-09T05:01:34.149Z,68.04
2018-08-09T05:03:37.545Z,68.32
2018-08-09T05:04:37.497Z,67.94
2018-08-09T05:06:41.844Z,68.04
2018-08-09T05:07:41.822Z,67.94
2018-08-09T05:09:44.655Z,68.52
2018-08-09T05:10:44.627Z,67.84
2018-08-09T05:12:39.525Z,68.90
2018-08-09T05:13:38.956Z,68.32
2018-08-09T05:15:37.830Z,68.52
2018-08-09T05:16:37.749Z,68.90
2018-08-09T05:18:42.112Z,67.74
2018-08-09T05:19:42.095Z,68.13
2018-08-09T05:21:46.654Z,68.61
2018-08-09T05:22:46.391Z,68.61
2018-08-09T05:25:02.285Z,68.90
2018-08-09T05:26:02.255Z,68.90
2018-08-09T05:28:10.120Z,69.03
2018-08-09T05:29:10.128Z,68.99
2018-08-09T05:31:16.339Z,68.99
2018-08-09T05:32:16.024Z,68.93
2018-08-09T05:34:26.334Z,69.03
2018-08-09T05:35:26.542Z,69.03
2018-08-09T05:37:31.217Z,68.99
2018-08-09T05:38:30.671Z,68.61
2018-08-09T05:40:36.720Z,68.93
2018-08-09T05:41:36.581Z,68.93
2018-08-09T05:43:39.526Z,69.23
2018-08-09T05:44:39.316Z,69.03
2018-08-09T05:47:04.301Z,69.03
2018-08-09T05:48:04.153Z,68.26
2018-08-09T05:49:04.172Z,69.23
2018-08-09T05:50:04.204Z,69.45
2018-08-09T05:51:04.073Z,69.93
2018-08-09T05:52:04.060Z,69.64
2018-08-09T05:53:04.231Z,69.64
2018-08-09T05:54:04.158Z,69.26
2018-08-09T05:55:04.134Z,69.35
2018-08-09T05:56:04.031Z,69.26
2018-08-09T05:57:03.948Z,69.93
2018-08-09T05:58:03.894Z,69.55
2018-08-09T05:59:03.873Z,68.87
2018-08-09T06:00:03.850Z,69.64
2018-08-09T06:01:03.823Z,69.84
2018-08-09T06:02:03.804Z,69.51
2018-08-09T06:03:03.774Z,69.61
2018-08-09T06:04:03.746Z,69.32
2018-08-09T06:05:03.722Z,69.80
2018-08-09T06:06:03.693Z,69.03
2018-08-09T06:07:03.686Z,69.23
2018-08-09T06:08:03.661Z,69.71
2018-08-09T06:09:25.356Z,69.03
2018-08-09T06:11:11.600Z,70.09
2018-08-09T06:12:11.668Z,69.71
2018-08-09T06:14:24.423Z,69.90
2018-08-09T06:15:24.483Z,70.13
2018-08-09T06:17:30.403Z,70.90
2018-08-09T06:18:30.329Z,70.03
2018-08-09T06:20:46.583Z,71.22
2018-08-09T06:21:46.300Z,71.12
2018-08-09T06:23:51.512Z,71.61
2018-08-09T06:24:51.778Z,71.61
2018-08-09T06:27:01.666Z,71.70
2018-08-09T06:28:01.766Z,71.32
2018-08-09T06:30:08.113Z,72.38
2018-08-09T06:31:08.403Z,72.58
2018-08-09T06:33:15.027Z,72.19
2018-08-09T06:34:13.822Z,72.48
2018-08-09T06:35:13.371Z,72.80
2018-08-09T06:36:14.022Z,73.00
2018-08-09T06:37:13.522Z,73.28
2018-08-09T06:38:14.716Z,73.48
2018-08-09T06:39:14.942Z,73.58
2018-08-09T06:40:14.206Z,73.09
2018-08-09T06:41:14.573Z,73.86
2018-08-09T06:42:12.988Z,74.54
2018-08-09T06:43:12.622Z,74.16
2018-08-09T06:44:12.689Z,73.96
2018-08-09T06:45:12.585Z,73.58
2018-08-09T06:46:12.562Z,74.06
2018-08-09T06:47:12.535Z,73.77
2018-08-09T06:48:12.593Z,74.16
2018-08-09T06:49:12.622Z,73.93
2018-08-09T06:50:12.471Z,74.54
2018-08-09T06:51:12.540Z,73.54
2018-08-09T06:52:12.405Z,74.73
2018-08-09T06:53:12.476Z,74.21
2018-08-09T06:54:12.378Z,74.06
2018-08-09T06:55:12.339Z,74.64
2018-08-09T06:56:12.331Z,74.44
2018-08-09T06:57:12.280Z,73.96
2018-08-09T06:58:12.289Z,74.64
2018-08-09T06:59:12.261Z,75.22
2018-08-09T07:00:12.343Z,74.54
2018-08-09T07:01:12.195Z,75.41
2018-08-09T07:02:12.168Z,75.12
2018-08-09T07:03:12.191Z,74.64
2018-08-09T07:04:12.118Z,75.12
2018-08-09T07:05:12.211Z,75.12
2018-08-09T07:06:12.079Z,75.22
2018-08-09T07:07:12.138Z,75.51
2018-08-09T07:08:12.032Z,75.16
2018-08-09T07:09:12.117Z,75.74
2018-08-09T07:10:12.062Z,75.54
2018-08-09T07:11:11.954Z,75.64
2018-08-09T07:12:11.935Z,76.12
2018-08-09T07:13:11.997Z,75.45
2018-08-09T07:14:11.890Z,75.74
2018-08-09T07:15:11.867Z,75.68
2018-08-09T07:16:11.929Z,75.78
2018-08-09T07:17:11.808Z,75.87
2018-08-09T07:18:11.838Z,75.58
2018-08-09T07:19:11.769Z,75.81
2018-08-09T07:20:11.801Z,75.71
2018-08-09T07:21:11.723Z,76.04
2018-08-09T07:22:11.726Z,76.24
2018-08-09T07:23:11.674Z,75.56
2018-08-09T07:24:11.671Z,75.85
2018-08-09T07:25:11.721Z,75.37
2018-08-09T07:26:11.704Z,76.04
2018-08-09T07:27:11.603Z,75.56
2018-08-09T07:28:11.565Z,75.95
2018-08-09T07:29:11.533Z,75.85
2018-08-09T07:32:37.888Z,75.79
2018-08-09T07:32:57.480Z,75.85
2018-08-09T07:34:59.279Z,75.95
2018-08-09T07:36:00.357Z,75.75
2018-08-09T07:38:10.598Z,76.14
2018-08-09T07:39:11.012Z,75.75
2018-08-09T07:40:10.301Z,75.27
2018-08-09T07:41:10.401Z,76.14
2018-08-09T07:42:09.990Z,76.24
2018-08-09T07:43:11.710Z,75.75
2018-08-09T07:44:11.529Z,75.85
2018-08-09T07:46:56.287Z,75.95
2018-08-09T07:47:56.563Z,76.39
2018-08-09T07:50:07.750Z,76.29
2018-08-09T07:51:08.143Z,76.39
2018-08-09T07:52:07.490Z,75.56
2018-08-09T07:53:07.396Z,75.95
2018-08-09T07:54:07.527Z,76.14
2018-08-09T07:55:07.258Z,75.37
2018-08-09T07:56:07.152Z,76.82
2018-08-09T07:57:07.230Z,75.98
2018-08-09T07:58:07.122Z,76.08
2018-08-09T07:59:07.079Z,75.98
2018-08-09T08:00:07.225Z,75.85
2018-08-09T08:01:07.027Z,76.04
2018-08-09T08:02:07.009Z,76.46
2018-08-09T08:03:06.976Z,75.79
2018-08-09T08:04:06.974Z,76.08
2018-08-09T08:05:06.953Z,76.08
2018-08-09T08:06:06.954Z,76.37
2018-08-09T08:07:06.892Z,76.56
2018-08-09T08:08:06.875Z,76.37
2018-08-09T08:09:06.855Z,76.02
2018-08-09T08:10:06.832Z,75.63
2018-08-09T08:11:06.817Z,76.21
2018-08-09T08:12:06.835Z,75.92
2018-08-09T08:13:06.799Z,75.92
2018-08-09T08:14:06.742Z,75.63
2018-08-09T08:15:06.777Z,75.57
2018-08-09T08:16:06.700Z,75.96
2018-08-09T08:17:06.684Z,74.80
2018-08-09T08:18:06.655Z,75.34
2018-08-09T08:19:06.635Z,75.77
2018-08-09T08:20:06.824Z,75.67
2018-08-09T08:21:06.578Z,75.87
2018-08-09T08:22:06.575Z,75.24
2018-08-09T08:23:06.561Z,75.63
2018-08-09T08:24:06.524Z,75.60
2018-08-09T08:25:06.495Z,75.79
2018-08-09T08:26:06.484Z,76.18
2018-08-09T08:27:06.459Z,75.83
2018-08-09T08:28:06.430Z,76.12
2018-08-09T08:29:06.446Z,75.83
2018-08-09T08:30:06.389Z,76.21
2018-08-09T08:31:06.369Z,76.21
2018-08-09T08:32:06.342Z,76.21
2018-08-09T08:33:06.323Z,75.63
2018-08-09T08:34:06.295Z,75.54
2018-08-09T08:35:06.274Z,75.63
2018-08-09T08:36:06.264Z,75.83
2018-08-09T08:37:06.233Z,75.15
2018-08-09T08:38:06.207Z,75.73
2018-08-09T08:39:06.187Z,75.63
2018-08-09T08:40:06.170Z,76.21
2018-08-09T08:41:06.147Z,76.60
2018-08-09T08:42:06.120Z,76.18
2018-08-09T08:43:06.136Z,76.08
2018-08-09T08:44:06.079Z,75.98
2018-08-09T08:45:06.053Z,76.08
2018-08-09T08:46:06.041Z,76.46
2018-08-09T08:47:05.999Z,76.46
2018-08-09T08:48:05.994Z,76.18
2018-08-09T08:49:05.958Z,76.46
2018-08-09T08:50:05.945Z,76.66
2018-08-09T08:51:05.938Z,76.41
2018-08-09T08:52:05.893Z,76.12
2018-08-09T08:53:05.908Z,76.21
2018-08-09T08:54:05.867Z,75.63
2018-08-09T08:55:05.840Z,76.12
2018-08-09T08:56:05.799Z,75.77
2018-08-09T08:57:05.788Z,76.25
2018-08-09T08:58:05.767Z,76.06
2018-08-09T08:59:05.729Z,76.41
2018-08-09T09:00:05.798Z,76.45
2018-08-09T09:01:05.719Z,75.63
2018-08-09T09:02:05.713Z,76.25
2018-08-09T09:03:05.663Z,76.15
2018-08-09T09:04:05.622Z,75.67
2018-08-09T09:05:05.615Z,75.38
2018-08-09T09:06:05.581Z,75.87
2018-08-09T09:07:05.628Z,76.06
2018-08-09T09:08:05.536Z,76.15
2018-08-09T09:09:05.550Z,75.96
2018-08-09T09:10:05.498Z,76.41
2018-08-09T09:11:05.466Z,76.12
2018-08-09T09:12:05.451Z,76.41
2018-08-09T09:13:05.426Z,76.31
2018-08-09T09:14:05.411Z,76.41
2018-08-09T09:15:05.386Z,76.02
2018-08-09T09:16:05.415Z,76.12
2018-08-09T09:17:05.336Z,76.51
2018-08-09T09:18:05.314Z,76.51
2018-08-09T09:19:05.309Z,76.51
2018-08-09T09:20:05.277Z,75.83
2018-08-09T09:21:05.247Z,75.92
2018-08-09T09:22:05.241Z,76.02
2018-08-09T09:23:05.232Z,76.60
2018-08-09T09:24:05.192Z,76.31
2018-08-09T09:25:05.215Z,75.92
2018-08-09T09:26:05.154Z,76.51
2018-08-09T09:27:05.202Z,76.60
2018-08-09T09:28:05.093Z,76.12
2018-08-09T09:29:05.099Z,76.31
2018-08-09T09:30:05.067Z,76.31
2018-08-09T09:31:05.031Z,76.51
2018-08-09T09:32:05.013Z,76.12
2018-08-09T09:33:05.005Z,76.41
2018-08-09T09:34:05.009Z,76.54
2018-08-09T09:35:04.980Z,75.67
2018-08-09T09:36:04.934Z,76.06
2018-08-09T09:37:04.952Z,76.29
2018-08-09T09:38:04.870Z,76.00
2018-08-09T09:39:04.847Z,75.81
2018-08-09T09:40:04.866Z,76.19
2018-08-09T09:41:04.847Z,75.81
2018-08-09T09:42:04.784Z,75.71
2018-08-09T09:43:04.773Z,75.84
2018-08-09T09:44:04.767Z,75.20
2018-08-09T09:45:04.723Z,75.49
2018-08-09T09:46:04.700Z,75.45
2018-08-09T09:47:04.759Z,75.65
2018-08-09T09:48:04.652Z,75.74
2018-08-09T09:49:04.632Z,75.94
2018-08-09T09:50:04.613Z,75.36
2018-08-09T09:51:04.602Z,75.84
2018-08-09T09:52:04.577Z,76.23
2018-08-09T09:53:04.555Z,76.23
2018-08-09T09:54:04.544Z,76.23
2018-08-09T09:55:04.552Z,75.84
2018-08-09T09:56:04.497Z,76.32
2018-08-09T09:57:04.469Z,76.14
2018-08-09T09:58:04.447Z,76.14
2018-08-09T09:59:04.451Z,76.23
2018-08-09T10:00:04.430Z,76.17
2018-08-09T10:01:04.380Z,75.78
2018-08-09T10:02:04.488Z,76.04
2018-08-09T10:03:04.383Z,75.84
2018-08-09T10:04:04.368Z,75.78
2018-08-09T10:05:04.306Z,75.40
2018-08-09T10:06:04.286Z,75.62
2018-08-09T10:07:04.336Z,75.43
2018-08-09T10:08:04.267Z,75.24
2018-08-09T10:09:04.223Z,75.43
2018-08-09T10:10:04.193Z,75.37
2018-08-09T10:11:04.191Z,75.08
2018-08-09T10:12:04.171Z,75.60
2018-08-09T10:13:04.139Z,74.82
2018-08-09T10:14:04.118Z,74.82
2018-08-09T10:15:04.086Z,74.15
2018-08-09T10:16:04.071Z,74.54
2018-08-09T10:17:04.058Z,74.34
2018-08-09T10:18:04.054Z,73.99
2018-08-09T10:19:04.013Z,73.50
2018-08-09T10:20:03.993Z,73.21
2018-08-09T10:21:03.961Z,73.44
2018-08-09T10:22:03.950Z,73.24
2018-08-09T10:23:03.925Z,72.70
2018-08-09T10:24:03.945Z,71.47
2018-08-09T10:25:03.890Z,70.59
2018-08-09T10:26:03.881Z,70.88
2018-08-09T10:27:03.853Z,70.01
2018-08-09T10:28:03.846Z,69.71
2018-08-09T10:29:03.805Z,69.52
2018-08-09T10:30:03.810Z,68.29
2018-08-09T10:31:03.774Z,69.36
2018-08-09T10:32:03.748Z,69.65
2018-08-09T10:33:03.737Z,68.55
2018-08-09T10:34:03.715Z,68.93
2018-08-09T10:35:03.684Z,68.45
2018-08-09T10:36:03.675Z,69.91
2018-08-09T10:37:03.656Z,68.64
2018-08-09T10:38:03.639Z,68.09
2018-08-09T10:39:03.615Z,67.60
2018-08-09T10:40:03.600Z,66.56
2018-08-09T10:41:03.577Z,66.17
2018-08-09T10:42:03.549Z,65.88
2018-08-09T10:43:03.570Z,66.86
2018-08-09T10:44:03.541Z,66.76
2018-08-09T10:45:03.505Z,65.63
2018-08-09T10:46:03.478Z,64.58
2018-08-09T10:47:03.451Z,63.80
2018-08-09T10:48:03.464Z,63.31
2018-08-09T10:49:03.431Z,63.12
2018-08-09T10:50:03.424Z,62.47
2018-08-09T10:51:03.389Z,61.49
2018-08-09T10:52:03.359Z,61.20
2018-08-09T10:53:03.365Z,60.52
2018-08-09T10:54:03.324Z,60.32
2018-08-09T10:55:03.305Z,59.47
2018-08-09T10:56:03.286Z,60.45
2018-08-09T10:57:03.276Z,61.69
2018-08-09T10:58:03.253Z,61.20
2018-08-09T10:59:03.235Z,61.59
2018-08-09T11:00:03.207Z,61.00
2018-08-09T11:01:03.208Z,61.10
2018-08-09T11:02:03.176Z,61.30
2018-08-09T11:03:03.162Z,62.47
2018-08-09T11:04:03.137Z,62.44
2018-08-09T11:05:03.126Z,62.27
2018-08-09T11:06:03.106Z,61.69
2018-08-09T11:07:03.087Z,61.52
2018-08-09T11:08:03.071Z,60.35
2018-08-09T11:09:03.097Z,61.06
2018-08-09T11:10:03.039Z,60.64
2018-08-09T11:11:03.016Z,61.04
2018-08-09T11:12:03.057Z,61.33
2018-08-09T11:13:02.985Z,60.42
2018-08-09T11:14:02.957Z,61.40
2018-08-09T11:15:02.961Z,60.91
2018-08-09T11:16:02.934Z,60.94
2018-08-09T11:17:02.946Z,60.35
2018-08-09T11:18:02.893Z,60.25
2018-08-09T11:19:02.872Z,60.38
2018-08-09T11:20:02.860Z,60.06
2018-08-09T11:21:02.840Z,60.55
2018-08-09T11:22:02.817Z,60.94
2018-08-09T11:23:02.801Z,60.64
2018-08-09T11:24:02.796Z,62.01
2018-08-09T11:25:02.806Z,61.23
2018-08-09T11:26:02.744Z,61.43
2018-08-09T11:27:02.740Z,60.84
2018-08-09T11:28:02.737Z,61.40
2018-08-09T11:29:02.696Z,62.76
2018-08-09T11:30:02.677Z,62.34
2018-08-09T11:31:02.679Z,63.44
2018-08-09T11:32:02.727Z,63.44
2018-08-09T11:33:02.628Z,62.66
2018-08-09T11:34:02.669Z,61.82
2018-08-09T11:35:02.665Z,62.11
2018-08-09T11:36:02.581Z,62.33
2018-08-09T11:37:02.719Z,61.19
2018-08-09T11:38:02.564Z,58.73
2018-08-09T11:39:02.513Z,57.50
2018-08-09T11:40:02.503Z,58.68
2018-08-09T11:41:02.477Z,58.97
2018-08-09T11:42:02.462Z,59.07
2018-08-09T11:43:02.448Z,57.82
2018-08-09T11:44:02.454Z,57.49
2018-08-09T11:45:02.453Z,56.15
2018-08-09T11:46:02.397Z,55.95
2018-08-09T11:47:02.387Z,55.98
2018-08-09T11:48:02.367Z,55.92
2018-08-09T11:49:02.352Z,56.81
2018-08-09T11:50:02.331Z,57.29
2018-08-09T11:51:02.315Z,56.05
2018-08-09T11:52:02.298Z,55.58
2018-08-09T11:53:02.300Z,55.53
2018-08-09T11:54:02.260Z,55.76
2018-08-09T11:55:02.241Z,55.56
2018-08-09T11:56:02.234Z,55.76
2018-08-09T11:57:02.258Z,56.24
2018-08-09T11:58:02.200Z,57.62
2018-08-09T11:59:02.197Z,57.68
2018-08-09T12:00:02.182Z,56.90
2018-08-09T12:01:02.157Z,57.56
2018-08-09T12:02:02.212Z,58.31
2018-08-09T12:03:02.120Z,61.58
2018-08-09T12:04:02.117Z,61.55
2018-08-09T12:05:02.108Z,62.04
2018-08-09T12:06:02.085Z,62.43
2018-08-09T12:07:02.081Z,62.63
2018-08-09T12:08:02.040Z,63.90
2018-08-09T12:09:02.029Z,64.26
2018-08-09T12:10:02.044Z,64.36
2018-08-09T12:11:01.987Z,64.65
2018-08-09T12:12:01.966Z,65.14
2018-08-09T12:13:01.971Z,65.69
2018-08-09T12:14:01.931Z,66.17
2018-08-09T12:15:02.004Z,67.25
2018-08-09T12:16:01.920Z,66.86
2018-08-09T12:17:01.888Z,68.03
2018-08-09T12:18:01.866Z,68.23
2018-08-09T12:19:01.872Z,68.03
2018-08-09T12:20:01.867Z,68.32
2018-08-09T12:21:01.973Z,67.93
2018-08-09T12:22:03.843Z,68.97
2018-08-09T12:23:01.820Z,68.42
2018-08-09T12:24:01.759Z,68.42
2018-08-09T12:25:01.744Z,68.87
2018-08-09T12:26:01.721Z,68.91
2018-08-09T12:27:01.752Z,68.68
2018-08-09T12:28:01.699Z,69.40
2018-08-09T12:29:01.675Z,69.59
2018-08-09T12:30:01.721Z,68.52
2018-08-09T12:31:01.694Z,68.03
2018-08-09T12:32:01.652Z,68.16
2018-08-09T12:33:01.595Z,68.36
2018-08-09T12:34:01.580Z,67.87
2018-08-09T12:35:01.558Z,69.04
2018-08-09T12:36:01.541Z,68.46
2018-08-09T12:37:01.522Z,68.36
2018-08-09T12:38:01.504Z,68.52
2018-08-09T12:39:01.559Z,70.28
2018-08-09T12:40:01.488Z,70.67
2018-08-09T12:41:01.453Z,71.02
2018-08-09T12:42:01.438Z,70.63
2018-08-09T12:43:01.421Z,72.29
2018-08-09T12:44:01.393Z,72.97
2018-08-09T12:45:01.380Z,72.49
2018-08-09T12:46:01.358Z,72.19
2018-08-09T12:47:01.336Z,73.33
2018-08-09T12:48:01.333Z,73.43
2018-08-09T12:49:01.303Z,72.84
2018-08-09T12:50:01.288Z,73.72
2018-08-09T12:51:01.292Z,73.52
2018-08-09T12:52:01.245Z,72.90
2018-08-09T12:53:01.236Z,72.94
2018-08-09T12:54:01.211Z,73.52
2018-08-09T12:55:01.201Z,73.23
2018-08-09T12:56:01.172Z,72.68
2018-08-09T12:57:01.162Z,72.58
2018-08-09T12:58:01.130Z,72.39
2018-08-09T12:59:01.115Z,71.90
2018-08-09T13:00:01.247Z,73.75
2018-08-09T13:01:01.086Z,73.07
2018-08-09T13:02:01.060Z,74.05
2018-08-09T13:03:01.052Z,72.68
2018-08-09T13:04:01.020Z,72.00
2018-08-09T13:05:01.010Z,72.49
2018-08-09T13:06:00.981Z,71.22
2018-08-09T13:07:00.963Z,70.92
2018-08-09T13:08:01.003Z,70.92
2018-08-09T13:09:00.936Z,68.87
2018-08-09T13:10:00.927Z,67.80
2018-08-09T13:11:00.915Z,70.24
2018-08-09T13:12:00.868Z,67.12
2018-08-09T13:13:00.874Z,66.56
2018-08-09T13:14:00.837Z,65.39
2018-08-09T13:15:00.813Z,64.12
2018-08-09T13:16:00.787Z,64.42
2018-08-09T13:17:00.790Z,63.54
2018-08-09T13:18:00.759Z,61.69
2018-08-09T13:19:00.743Z,61.33
2018-08-09T13:20:00.724Z,60.64
2018-08-09T13:21:00.706Z,61.82
2018-08-09T13:22:00.680Z,60.08
2018-08-09T13:23:00.666Z,60.38
2018-08-09T13:24:00.644Z,59.77
2018-08-09T13:25:00.622Z,59.89
2018-08-09T13:26:00.603Z,59.50
2018-08-09T13:27:00.592Z,59.69
2018-08-09T13:28:00.561Z,61.35
2018-08-09T13:29:00.549Z,60.47
2018-08-09T13:30:00.532Z,59.57
2018-08-09T13:31:00.508Z,59.89
2018-08-09T13:32:00.510Z,61.65
2018-08-09T13:33:00.477Z,59.69
2018-08-09T13:34:00.461Z,60.57
2018-08-09T13:35:00.442Z,61.45
2018-08-09T13:36:00.414Z,60.38
2018-08-09T13:37:00.403Z,62.53
2018-08-09T13:38:00.406Z,67.02
2018-08-09T13:39:00.391Z,66.05
2018-08-09T13:40:00.348Z,67.25
2018-08-09T13:41:00.327Z,67.83
2018-08-09T13:42:00.312Z,61.16
2018-08-09T13:43:00.288Z,58.52
2018-08-09T13:44:00.276Z,58.59
2018-08-09T13:45:00.249Z,57.42
2018-08-09T13:46:00.260Z,56.74
2018-08-09T13:47:00.222Z,57.32
2018-08-09T13:48:00.226Z,57.25
2018-08-09T13:49:00.175Z,55.96
2018-08-09T13:50:00.175Z,55.86
2018-08-09T13:51:00.157Z,56.35
2018-08-09T13:52:00.131Z,56.15
2018-08-09T13:53:00.124Z,57.91
2018-08-09T13:54:00.096Z,59.15
2018-08-09T13:55:00.084Z,62.37
2018-08-09T13:56:00.043Z,62.73
2018-08-09T13:57:00.138Z,63.12
2018-08-09T13:58:00.033Z,63.41
2018-08-09T13:59:00.011Z,62.70
2018-08-09T13:59:59.997Z,62.41
2018-08-09T14:00:59.960Z,63.41
2018-08-09T14:01:59.939Z,62.15
2018-08-09T14:02:59.978Z,62.34
2018-08-09T14:03:59.958Z,62.34
2018-08-09T14:04:59.888Z,60.97
2018-08-09T14:05:59.883Z,60.97
2018-08-09T14:06:59.865Z,61.46
2018-08-09T14:07:59.818Z,60.58
2018-08-09T14:08:59.809Z,62.34
2018-08-09T14:09:59.809Z,65.53
2018-08-09T14:10:59.777Z,67.08
2018-08-09T14:11:59.754Z,68.90
2018-08-09T14:12:59.747Z,70.56
2018-08-09T14:13:59.720Z,71.64
2018-08-09T14:14:59.743Z,72.38
2018-08-09T14:15:59.677Z,72.77
2018-08-09T14:16:59.820Z,73.41
2018-08-09T14:17:59.654Z,74.10
2018-08-09T14:19:00.431Z,73.22
2018-08-09T14:19:59.596Z,73.80
2018-08-09T14:20:59.624Z,73.22
2018-08-09T14:21:59.554Z,73.32
2018-08-09T14:22:59.546Z,73.41
2018-08-09T14:23:59.532Z,72.86
2018-08-09T14:24:59.523Z,72.19
2018-08-09T14:25:59.484Z,71.80
2018-08-09T14:26:59.471Z,71.41
2018-08-09T14:27:59.439Z,71.11